createdAt,value
2023-05-01T00:01:10.348Z,7.8
2023-05-01T00:11:10.328Z,7.7
2023-05-01T00:21:10.316Z,7.6
2023-05-01T00:31:10.529Z,7.5
2023-05-01T00:41:10.366Z,7.3
2023-05-01T00:51:10.480Z,7.4
2023-05-01T01:01:10.466Z,7.4
2023-05-01T01:11:10.689Z,7.2
2023-05-01T01:21:10.452Z,7.7
2023-05-01T01:31:10.866Z,8.4
2023-05-01T01:41:10.439Z,8.8
2023-05-01T01:51:10.432Z,9.0
2023-05-01T02:01:10.480Z,8.9
2023-05-01T02:11:10.490Z,8.8
2023-05-01T02:21:10.862Z,8.8
2023-05-01T02:31:10.699Z,8.6
2023-05-01T02:41:10.521Z,8.3
2023-05-01T02:51:10.461Z,7.9
2023-05-01T03:01:10.539Z,7.7
2023-05-01T03:11:10.470Z,7.5
2023-05-01T03:21:10.449Z,7.1
2023-05-01T03:31:10.574Z,6.9
2023-05-01T03:41:10.638Z,6.7
2023-05-01T03:51:11.098Z,6.9
2023-05-01T04:01:10.536Z,7.2
2023-05-01T04:11:10.624Z,7.3
2023-05-01T04:21:10.476Z,7.6
2023-05-01T04:31:10.490Z,7.8
2023-05-01T04:41:10.834Z,7.9
2023-05-01T04:51:10.501Z,8.1
2023-05-01T05:01:10.408Z,8.2
2023-05-01T05:11:10.548Z,8.3
2023-05-01T05:21:10.501Z,8.4
2023-05-01T05:31:10.556Z,8.6
2023-05-01T05:41:10.475Z,8.8
2023-05-01T05:51:10.527Z,8.8
2023-05-01T06:01:11.247Z,8.9
2023-05-01T06:11:10.788Z,9.1
2023-05-01T06:21:10.529Z,9.2
2023-05-01T06:31:10.605Z,9.3
2023-05-01T06:41:10.453Z,9.6
2023-05-01T06:51:10.559Z,9.8
2023-05-01T07:01:10.704Z,10.1
2023-05-01T07:11:10.612Z,10.6
2023-05-01T07:21:10.646Z,10.9
2023-05-01T07:31:10.585Z,11.4
2023-05-01T07:41:10.537Z,11.8
2023-05-01T07:51:10.638Z,11.9
2023-05-01T08:01:10.687Z,12.2
2023-05-01T08:11:10.724Z,12.5
2023-05-01T08:21:11.244Z,13.0
2023-05-01T08:31:11.074Z,13.2
2023-05-01T08:41:10.644Z,13.7
2023-05-01T08:51:11.798Z,14.5
2023-05-01T09:01:10.677Z,14.5
2023-05-01T09:11:10.756Z,15.0
2023-05-01T09:21:10.984Z,15.9
2023-05-01T09:31:10.850Z,16.5
2023-05-01T09:41:10.785Z,16.4
2023-05-01T09:51:10.867Z,16.9
2023-05-01T10:01:10.797Z,17.2
2023-05-01T10:11:10.666Z,17.2
2023-05-01T10:21:10.821Z,16.6
2023-05-01T10:31:10.679Z,16.8
2023-05-01T10:41:10.712Z,17.5
2023-05-01T10:51:10.705Z,18.1
2023-05-01T11:01:10.723Z,18.4
2023-05-01T11:11:10.813Z,18.6
2023-05-01T11:21:10.767Z,18.2
2023-05-01T11:31:10.649Z,17.8
2023-05-01T11:41:10.796Z,18.4
2023-05-01T11:51:11.187Z,18.1
2023-05-01T12:01:10.930Z,18.9
2023-05-01T12:11:10.915Z,19.0
2023-05-01T12:21:11.508Z,19.3
2023-05-01T12:31:11.070Z,19.0
2023-05-01T12:41:11.003Z,18.9
2023-05-01T12:51:11.216Z,18.3
2023-05-01T13:01:11.036Z,18.2
2023-05-01T13:11:11.190Z,18.6
2023-05-01T13:21:11.058Z,19.1
2023-05-01T13:31:11.580Z,19.8
2023-05-01T13:41:11.038Z,19.7
2023-05-01T13:51:11.424Z,20.0
2023-05-01T14:01:11.162Z,20.2
2023-05-01T14:11:11.025Z,20.2
2023-05-01T14:21:10.960Z,19.8
2023-05-01T14:31:11.196Z,19.6
2023-05-01T14:41:11.381Z,18.6
2023-05-01T14:51:11.183Z,17.9
2023-05-01T15:01:10.982Z,17.3
2023-05-01T15:11:11.029Z,16.9
2023-05-01T15:21:11.129Z,16.5
2023-05-01T15:31:11.796Z,16.3
2023-05-01T15:41:11.018Z,16.4
2023-05-01T15:51:11.074Z,17.2
2023-05-01T16:01:11.144Z,17.1
2023-05-01T16:11:11.185Z,17.1
2023-05-01T16:21:11.312Z,17.3
2023-05-01T16:31:23.537Z,16.9
2023-05-01T16:41:11.566Z,16.9
2023-05-01T16:51:10.974Z,16.5
2023-05-01T17:01:11.049Z,16.4
2023-05-01T17:11:11.286Z,16.0
2023-05-01T17:21:11.228Z,15.7
2023-05-01T17:31:11.241Z,15.5
2023-05-01T17:41:11.398Z,15.1
2023-05-01T17:51:11.135Z,14.7
2023-05-01T18:01:11.358Z,14.2
2023-05-01T18:11:11.120Z,14.0
2023-05-01T18:21:11.085Z,13.9
2023-05-01T18:31:11.215Z,13.8
2023-05-01T18:41:11.293Z,13.7
2023-05-01T18:51:11.552Z,13.6
2023-05-01T19:01:11.250Z,13.5
2023-05-01T19:11:11.362Z,13.4
2023-05-01T19:21:11.124Z,13.3
2023-05-01T19:31:12.440Z,13.2
2023-05-01T19:41:11.652Z,13.1
2023-05-01T19:51:11.235Z,13.0
2023-05-01T20:01:11.906Z,12.8
2023-05-01T20:11:11.363Z,12.5
2023-05-01T20:21:11.300Z,12.3
2023-05-01T20:31:11.587Z,12.1
2023-05-01T20:41:11.424Z,11.8
2023-05-01T20:51:11.691Z,11.6
2023-05-01T21:01:11.389Z,11.4
2023-05-01T21:11:11.666Z,11.2
2023-05-01T21:21:11.728Z,11.0
2023-05-01T21:31:11.455Z,10.9
2023-05-01T21:41:11.619Z,11.1
2023-05-01T21:51:11.482Z,11.3
2023-05-01T22:01:11.362Z,11.3
2023-05-01T22:11:11.500Z,11.3
2023-05-01T22:21:11.683Z,11.2
2023-05-01T22:31:11.856Z,10.8
2023-05-01T22:41:11.600Z,10.6
2023-05-01T22:51:11.681Z,10.4
2023-05-01T23:01:12.616Z,10.2
2023-05-01T23:11:12.549Z,10.1
2023-05-01T23:21:12.654Z,10.0
2023-05-01T23:31:14.012Z,9.9
2023-05-01T23:41:13.121Z,10.1
2023-05-01T23:51:13.294Z,10.3
